sensor_id;sensor_type;location;lat;lon;timestamp;P1;durP1;ratioP1;P2;durP2;ratioP2
10242;SDS011;5166;48.292;16.418;2022-08-19T00:00:42;23.10;;;21.40;;
10242;SDS011;5166;48.292;16.418;2022-08-19T00:02:45;23.73;;;21.90;;
10242;SDS011;5166;48.292;16.418;2022-08-19T00:04:47;23.73;;;21.97;;
10242;SDS011;5166;48.292;16.418;2022-08-19T00:06:50;25.13;;;23.00;;
10242;SDS011;5166;48.292;16.418;2022-08-19T00:08:53;25.57;;;23.40;;
10242;SDS011;5166;48.292;16.418;2022-08-19T00:10:55;23.87;;;21.97;;
10242;SDS011;5166;48.292;16.418;2022-08-19T00:12:58;25.07;;;23.10;;
10242;SDS011;5166;48.292;16.418;2022-08-19T00:15:01;23.33;;;21.53;;
10242;SDS011;5166;48.292;16.418;2022-08-19T00:17:04;21.23;;;19.73;;
10242;SDS011;5166;48.292;16.418;2022-08-19T00:19:07;25.13;;;23.30;;
10242;SDS011;5166;48.292;16.418;2022-08-19T00:21:10;26.30;;;23.97;;
10242;SDS011;5166;48.292;16.418;2022-08-19T00:23:14;24.50;;;22.60;;
10242;SDS011;5166;48.292;16.418;2022-08-19T00:25:17;25.87;;;23.77;;
10242;SDS011;5166;48.292;16.418;2022-08-19T00:27:20;33.40;;;30.50;;
10242;SDS011;5166;48.292;16.418;2022-08-19T00:29:23;29.47;;;26.87;;
10242;SDS011;5166;48.292;16.418;2022-08-19T00:31:25;28.90;;;26.47;;
10242;SDS011;5166;48.292;16.418;2022-08-19T00:33:29;27.10;;;24.80;;
10242;SDS011;5166;48.292;16.418;2022-08-19T00:35:32;29.10;;;26.63;;
10242;SDS011;5166;48.292;16.418;2022-08-19T00:37:34;26.03;;;23.67;;
10242;SDS011;5166;48.292;16.418;2022-08-19T00:39:37;26.27;;;24.37;;
10242;SDS011;5166;48.292;16.418;2022-08-19T00:41:41;27.97;;;25.40;;
10242;SDS011;5166;48.292;16.418;2022-08-19T00:43:49;26.00;;;23.80;;
10242;SDS011;5166;48.292;16.418;2022-08-19T00:45:46;27.73;;;25.53;;
10242;SDS011;5166;48.292;16.418;2022-08-19T00:47:49;25.47;;;23.37;;
10242;SDS011;5166;48.292;16.418;2022-08-19T00:49:53;26.67;;;24.47;;
10242;SDS011;5166;48.292;16.418;2022-08-19T00:51:58;26.50;;;24.37;;
10242;SDS011;5166;48.292;16.418;2022-08-19T00:54:00;24.27;;;22.57;;
10242;SDS011;5166;48.292;16.418;2022-08-19T00:56:03;25.20;;;23.10;;
10242;SDS011;5166;48.292;16.418;2022-08-19T00:58:07;25.20;;;22.80;;
10242;SDS011;5166;48.292;16.418;2022-08-19T01:00:11;24.00;;;22.30;;
10242;SDS011;5166;48.292;16.418;2022-08-19T01:02:13;25.00;;;23.20;;
10242;SDS011;5166;48.292;16.418;2022-08-19T01:04:16;23.77;;;22.13;;
10242;SDS011;5166;48.292;16.418;2022-08-19T01:06:19;23.60;;;21.50;;
10242;SDS011;5166;48.292;16.418;2022-08-19T01:08:22;24.23;;;22.27;;
10242;SDS011;5166;48.292;16.418;2022-08-19T01:10:26;22.90;;;21.37;;
10242;SDS011;5166;48.292;16.418;2022-08-19T01:12:28;23.77;;;22.03;;
10242;SDS011;5166;48.292;16.418;2022-08-19T01:14:31;24.37;;;22.53;;
10242;SDS011;5166;48.292;16.418;2022-08-19T01:16:34;23.80;;;22.00;;
10242;SDS011;5166;48.292;16.418;2022-08-19T01:18:38;25.07;;;23.13;;
10242;SDS011;5166;48.292;16.418;2022-08-19T01:20:40;23.97;;;22.17;;
10242;SDS011;5166;48.292;16.418;2022-08-19T01:22:44;25.27;;;23.37;;
10242;SDS011;5166;48.292;16.418;2022-08-19T01:24:45;25.43;;;23.53;;
10242;SDS011;5166;48.292;16.418;2022-08-19T01:26:48;24.47;;;22.77;;
10242;SDS011;5166;48.292;16.418;2022-08-19T01:28:52;26.23;;;24.13;;
10242;SDS011;5166;48.292;16.418;2022-08-19T01:30:55;22.93;;;21.43;;
10242;SDS011;5166;48.292;16.418;2022-08-19T01:32:59;23.37;;;21.67;;
10242;SDS011;5166;48.292;16.418;2022-08-19T01:35:03;24.37;;;22.57;;
10242;SDS011;5166;48.292;16.418;2022-08-19T01:37:07;28.63;;;26.50;;
10242;SDS011;5166;48.292;16.418;2022-08-19T01:39:10;26.63;;;24.73;;
10242;SDS011;5166;48.292;16.418;2022-08-19T01:41:12;24.73;;;22.97;;
10242;SDS011;5166;48.292;16.418;2022-08-19T01:43:15;25.57;;;23.53;;
10242;SDS011;5166;48.292;16.418;2022-08-19T01:45:18;25.37;;;23.57;;
10242;SDS011;5166;48.292;16.418;2022-08-19T01:47:21;25.03;;;23.13;;
10242;SDS011;5166;48.292;16.418;2022-08-19T01:49:24;25.23;;;23.27;;
10242;SDS011;5166;48.292;16.418;2022-08-19T01:51:27;23.47;;;21.77;;
10242;SDS011;5166;48.292;16.418;2022-08-19T01:53:30;25.50;;;23.70;;
10242;SDS011;5166;48.292;16.418;2022-08-19T01:57:47;25.30;;;23.53;;
10242;SDS011;5166;48.292;16.418;2022-08-19T01:59:49;24.00;;;22.10;;
10242;SDS011;5166;48.292;16.418;2022-08-19T02:01:52;25.67;;;23.87;;
10242;SDS011;5166;48.292;16.418;2022-08-19T02:03:55;25.23;;;23.40;;
10242;SDS011;5166;48.292;16.418;2022-08-19T02:05:58;27.60;;;25.90;;
10242;SDS011;5166;48.292;16.418;2022-08-19T02:08:00;25.83;;;23.73;;
10242;SDS011;5166;48.292;16.418;2022-08-19T02:10:05;23.90;;;21.93;;
10242;SDS011;5166;48.292;16.418;2022-08-19T02:12:08;24.80;;;23.03;;
10242;SDS011;5166;48.292;16.418;2022-08-19T02:14:11;25.07;;;23.17;;
10242;SDS011;5166;48.292;16.418;2022-08-19T02:16:14;24.63;;;22.73;;
10242;SDS011;5166;48.292;16.418;2022-08-19T02:18:17;23.47;;;21.63;;
10242;SDS011;5166;48.292;16.418;2022-08-19T02:20:20;21.60;;;20.00;;
10242;SDS011;5166;48.292;16.418;2022-08-19T02:22:23;21.93;;;20.17;;
10242;SDS011;5166;48.292;16.418;2022-08-19T02:24:26;21.97;;;20.40;;
10242;SDS011;5166;48.292;16.418;2022-08-19T02:26:28;21.63;;;20.20;;
10242;SDS011;5166;48.292;16.418;2022-08-19T02:28:31;21.83;;;20.10;;
10242;SDS011;5166;48.292;16.418;2022-08-19T02:30:34;23.90;;;22.00;;
10242;SDS011;5166;48.292;16.418;2022-08-19T02:32:37;23.50;;;21.70;;
10242;SDS011;5166;48.292;16.418;2022-08-19T02:34:40;22.63;;;20.73;;
10242;SDS011;5166;48.292;16.418;2022-08-19T02:36:43;23.53;;;21.60;;
10242;SDS011;5166;48.292;16.418;2022-08-19T02:38:46;23.90;;;21.90;;
10242;SDS011;5166;48.292;16.418;2022-08-19T02:40:49;22.08;;;20.42;;
10242;SDS011;5166;48.292;16.418;2022-08-19T02:42:53;23.23;;;21.43;;
10242;SDS011;5166;48.292;16.418;2022-08-19T02:44:56;21.80;;;20.13;;
10242;SDS011;5166;48.292;16.418;2022-08-19T02:46:59;21.77;;;20.00;;
10242;SDS011;5166;48.292;16.418;2022-08-19T02:49:03;22.27;;;20.70;;
10242;SDS011;5166;48.292;16.418;2022-08-19T02:51:06;22.97;;;21.47;;
10242;SDS011;5166;48.292;16.418;2022-08-19T02:53:09;24.10;;;22.37;;
10242;SDS011;5166;48.292;16.418;2022-08-19T02:55:12;21.50;;;19.70;;
10242;SDS011;5166;48.292;16.418;2022-08-19T02:57:15;23.20;;;21.40;;
10242;SDS011;5166;48.292;16.418;2022-08-19T02:59:18;22.60;;;20.83;;
10242;SDS011;5166;48.292;16.418;2022-08-19T03:01:22;21.80;;;20.20;;
10242;SDS011;5166;48.292;16.418;2022-08-19T03:03:24;22.45;;;20.80;;
10242;SDS011;5166;48.292;16.418;2022-08-19T03:05:27;23.93;;;22.30;;
10242;SDS011;5166;48.292;16.418;2022-08-19T03:07:30;24.90;;;23.13;;
10242;SDS011;5166;48.292;16.418;2022-08-19T03:09:33;24.15;;;22.55;;
10242;SDS011;5166;48.292;16.418;2022-08-19T03:11:36;23.37;;;21.77;;
10242;SDS011;5166;48.292;16.418;2022-08-19T03:13:39;26.03;;;24.13;;
10242;SDS011;5166;48.292;16.418;2022-08-19T03:15:43;24.90;;;23.10;;
10242;SDS011;5166;48.292;16.418;2022-08-19T03:17:45;27.10;;;25.20;;
10242;SDS011;5166;48.292;16.418;2022-08-19T03:19:48;24.67;;;22.97;;
10242;SDS011;5166;48.292;16.418;2022-08-19T03:21:51;21.90;;;20.40;;
10242;SDS011;5166;48.292;16.418;2022-08-19T03:23:55;26.23;;;24.30;;
10242;SDS011;5166;48.292;16.418;2022-08-19T03:25:57;26.42;;;24.52;;
10242;SDS011;5166;48.292;16.418;2022-08-19T03:27:59;24.63;;;22.83;;
10242;SDS011;5166;48.292;16.418;2022-08-19T03:30:03;28.13;;;25.90;;
10242;SDS011;5166;48.292;16.418;2022-08-19T03:32:06;26.97;;;25.10;;
10242;SDS011;5166;48.292;16.418;2022-08-19T03:34:10;24.48;;;22.38;;
10242;SDS011;5166;48.292;16.418;2022-08-19T03:36:14;25.67;;;23.87;;
10242;SDS011;5166;48.292;16.418;2022-08-19T03:38:16;23.37;;;21.73;;
10242;SDS011;5166;48.292;16.418;2022-08-19T03:40:19;23.83;;;22.23;;
10242;SDS011;5166;48.292;16.418;2022-08-19T03:42:22;24.43;;;22.57;;
10242;SDS011;5166;48.292;16.418;2022-08-19T03:44:25;20.87;;;19.37;;
10242;SDS011;5166;48.292;16.418;2022-08-19T03:46:29;26.50;;;24.60;;
10242;SDS011;5166;48.292;16.418;2022-08-19T03:48:31;22.07;;;20.50;;
10242;SDS011;5166;48.292;16.418;2022-08-19T03:50:38;26.60;;;24.70;;
10242;SDS011;5166;48.292;16.418;2022-08-19T03:52:42;26.73;;;24.73;;
10242;SDS011;5166;48.292;16.418;2022-08-19T03:54:45;26.87;;;24.97;;
10242;SDS011;5166;48.292;16.418;2022-08-19T03:56:49;20.80;;;19.30;;
10242;SDS011;5166;48.292;16.418;2022-08-19T03:58:51;22.67;;;20.93;;
10242;SDS011;5166;48.292;16.418;2022-08-19T04:00:54;25.17;;;23.37;;
10242;SDS011;5166;48.292;16.418;2022-08-19T04:02:58;21.80;;;20.10;;
10242;SDS011;5166;48.292;16.418;2022-08-19T04:05:01;25.27;;;23.57;;
10242;SDS011;5166;48.292;16.418;2022-08-19T04:07:05;26.00;;;24.10;;
10242;SDS011;5166;48.292;16.418;2022-08-19T04:09:08;27.03;;;25.07;;
10242;SDS011;5166;48.292;16.418;2022-08-19T04:11:10;29.50;;;27.20;;
10242;SDS011;5166;48.292;16.418;2022-08-19T04:13:13;25.83;;;24.08;;
10242;SDS011;5166;48.292;16.418;2022-08-19T04:15:15;27.80;;;25.50;;
10242;SDS011;5166;48.292;16.418;2022-08-19T04:17:18;27.03;;;25.03;;
10242;SDS011;5166;48.292;16.418;2022-08-19T04:19:21;27.70;;;25.57;;
10242;SDS011;5166;48.292;16.418;2022-08-19T04:21:24;26.00;;;23.98;;
10242;SDS011;5166;48.292;16.418;2022-08-19T04:23:27;27.27;;;25.27;;
10242;SDS011;5166;48.292;16.418;2022-08-19T04:25:35;26.12;;;24.05;;
10242;SDS011;5166;48.292;16.418;2022-08-19T04:27:38;26.65;;;24.55;;
10242;SDS011;5166;48.292;16.418;2022-08-19T04:29:41;25.65;;;24.10;;
10242;SDS011;5166;48.292;16.418;2022-08-19T04:31:45;26.35;;;24.45;;
10242;SDS011;5166;48.292;16.418;2022-08-19T04:33:48;25.38;;;23.50;;
10242;SDS011;5166;48.292;16.418;2022-08-19T04:35:51;25.23;;;23.23;;
10242;SDS011;5166;48.292;16.418;2022-08-19T04:37:54;23.73;;;22.00;;
10242;SDS011;5166;48.292;16.418;2022-08-19T04:39:57;23.67;;;21.90;;
10242;SDS011;5166;48.292;16.418;2022-08-19T04:42:05;23.48;;;21.98;;
10242;SDS011;5166;48.292;16.418;2022-08-19T04:44:13;27.05;;;24.95;;
10242;SDS011;5166;48.292;16.418;2022-08-19T04:46:17;27.27;;;25.17;;
10242;SDS011;5166;48.292;16.418;2022-08-19T04:48:20;25.25;;;23.35;;
10242;SDS011;5166;48.292;16.418;2022-08-19T04:50:23;24.27;;;22.75;;
10242;SDS011;5166;48.292;16.418;2022-08-19T04:52:26;29.85;;;27.50;;
10242;SDS011;5166;48.292;16.418;2022-08-19T04:54:30;22.45;;;20.90;;
10242;SDS011;5166;48.292;16.418;2022-08-19T04:56:33;29.62;;;27.55;;
10242;SDS011;5166;48.292;16.418;2022-08-19T04:58:36;24.50;;;22.70;;
10242;SDS011;5166;48.292;16.418;2022-08-19T05:00:38;30.45;;;28.05;;
10242;SDS011;5166;48.292;16.418;2022-08-19T05:02:41;27.92;;;25.92;;
10242;SDS011;5166;48.292;16.418;2022-08-19T05:04:44;25.85;;;23.67;;
10242;SDS011;5166;48.292;16.418;2022-08-19T05:06:47;28.23;;;26.38;;
10242;SDS011;5166;48.292;16.418;2022-08-19T05:08:51;28.95;;;26.88;;
10242;SDS011;5166;48.292;16.418;2022-08-19T05:10:54;25.33;;;23.60;;
10242;SDS011;5166;48.292;16.418;2022-08-19T05:12:56;24.70;;;23.00;;
10242;SDS011;5166;48.292;16.418;2022-08-19T05:15:00;30.27;;;28.40;;
10242;SDS011;5166;48.292;16.418;2022-08-19T05:17:02;30.42;;;28.52;;
10242;SDS011;5166;48.292;16.418;2022-08-19T05:19:05;28.80;;;26.77;;
10242;SDS011;5166;48.292;16.418;2022-08-19T05:21:15;25.73;;;23.95;;
10242;SDS011;5166;48.292;16.418;2022-08-19T05:23:22;29.75;;;27.67;;
10242;SDS011;5166;48.292;16.418;2022-08-19T05:25:26;28.08;;;25.98;;
10242;SDS011;5166;48.292;16.418;2022-08-19T05:27:29;25.17;;;23.58;;
10242;SDS011;5166;48.292;16.418;2022-08-19T05:29:32;25.73;;;23.92;;
10242;SDS011;5166;48.292;16.418;2022-08-19T05:31:35;27.58;;;25.67;;
10242;SDS011;5166;48.292;16.418;2022-08-19T05:33:39;29.90;;;28.02;;
10242;SDS011;5166;48.292;16.418;2022-08-19T05:35:41;30.83;;;29.02;;
10242;SDS011;5166;48.292;16.418;2022-08-19T05:37:44;24.85;;;23.10;;
10242;SDS011;5166;48.292;16.418;2022-08-19T05:39:48;25.00;;;23.30;;
10242;SDS011;5166;48.292;16.418;2022-08-19T05:41:52;25.55;;;23.98;;
10242;SDS011;5166;48.292;16.418;2022-08-19T05:43:54;26.55;;;24.58;;
10242;SDS011;5166;48.292;16.418;2022-08-19T05:45:57;27.70;;;25.67;;
10242;SDS011;5166;48.292;16.418;2022-08-19T05:47:59;28.05;;;25.77;;
10242;SDS011;5166;48.292;16.418;2022-08-19T05:50:03;25.75;;;24.15;;
10242;SDS011;5166;48.292;16.418;2022-08-19T05:52:08;27.35;;;25.52;;
10242;SDS011;5166;48.292;16.418;2022-08-19T05:54:09;26.98;;;25.10;;
10242;SDS011;5166;48.292;16.418;2022-08-19T05:56:13;26.92;;;24.98;;
10242;SDS011;5166;48.292;16.418;2022-08-19T05:58:16;23.65;;;22.02;;
10242;SDS011;5166;48.292;16.418;2022-08-19T06:00:19;25.00;;;23.40;;
10242;SDS011;5166;48.292;16.418;2022-08-19T06:02:22;25.02;;;23.30;;
10242;SDS011;5166;48.292;16.418;2022-08-19T06:04:25;23.33;;;21.62;;
10242;SDS011;5166;48.292;16.418;2022-08-19T06:06:28;22.27;;;20.48;;
10242;SDS011;5166;48.292;16.418;2022-08-19T06:08:31;25.00;;;22.83;;
10242;SDS011;5166;48.292;16.418;2022-08-19T06:10:34;23.65;;;22.05;;
10242;SDS011;5166;48.292;16.418;2022-08-19T06:12:37;22.50;;;21.00;;
10242;SDS011;5166;48.292;16.418;2022-08-19T06:14:40;25.83;;;23.70;;
10242;SDS011;5166;48.292;16.418;2022-08-19T06:16:42;22.50;;;21.00;;
10242;SDS011;5166;48.292;16.418;2022-08-19T06:18:45;22.83;;;21.10;;
10242;SDS011;5166;48.292;16.418;2022-08-19T06:20:48;17.23;;;15.85;;
10242;SDS011;5166;48.292;16.418;2022-08-19T06:22:51;17.83;;;16.48;;
10242;SDS011;5166;48.292;16.418;2022-08-19T06:24:58;18.67;;;17.20;;
10242;SDS011;5166;48.292;16.418;2022-08-19T06:27:02;16.88;;;15.65;;
10242;SDS011;5166;48.292;16.418;2022-08-19T06:29:05;23.02;;;21.33;;
10242;SDS011;5166;48.292;16.418;2022-08-19T06:31:08;28.85;;;27.25;;
10242;SDS011;5166;48.292;16.418;2022-08-19T06:33:10;25.70;;;23.55;;
10242;SDS011;5166;48.292;16.418;2022-08-19T06:35:13;22.25;;;20.75;;
10242;SDS011;5166;48.292;16.418;2022-08-19T06:37:16;18.58;;;16.98;;
10242;SDS011;5166;48.292;16.418;2022-08-19T06:39:20;20.38;;;18.73;;
10242;SDS011;5166;48.292;16.418;2022-08-19T06:41:22;19.33;;;17.92;;
10242;SDS011;5166;48.292;16.418;2022-08-19T06:43:25;19.85;;;18.30;;
10242;SDS011;5166;48.292;16.418;2022-08-19T06:45:28;18.30;;;16.90;;
10242;SDS011;5166;48.292;16.418;2022-08-19T06:47:31;20.73;;;19.17;;
10242;SDS011;5166;48.292;16.418;2022-08-19T06:49:34;22.95;;;21.20;;
10242;SDS011;5166;48.292;16.418;2022-08-19T06:51:37;25.38;;;23.23;;
10242;SDS011;5166;48.292;16.418;2022-08-19T06:53:40;27.33;;;24.90;;
10242;SDS011;5166;48.292;16.418;2022-08-19T06:55:43;24.27;;;22.67;;
10242;SDS011;5166;48.292;16.418;2022-08-19T06:57:46;18.45;;;16.98;;
10242;SDS011;5166;48.292;16.418;2022-08-19T06:59:49;18.90;;;17.50;;
10242;SDS011;5166;48.292;16.418;2022-08-19T07:01:52;17.60;;;16.20;;
10242;SDS011;5166;48.292;16.418;2022-08-19T07:03:55;21.02;;;19.52;;
10242;SDS011;5166;48.292;16.418;2022-08-19T07:05:57;21.58;;;19.77;;
10242;SDS011;5166;48.292;16.418;2022-08-19T07:08:00;21.42;;;19.88;;
10242;SDS011;5166;48.292;16.418;2022-08-19T07:10:05;21.33;;;19.50;;
10242;SDS011;5166;48.292;16.418;2022-08-19T07:12:09;30.08;;;27.77;;
10242;SDS011;5166;48.292;16.418;2022-08-19T07:14:11;22.48;;;20.62;;
10242;SDS011;5166;48.292;16.418;2022-08-19T07:16:15;16.02;;;14.88;;
10242;SDS011;5166;48.292;16.418;2022-08-19T07:18:18;16.25;;;14.73;;
10242;SDS011;5166;48.292;16.418;2022-08-19T07:20:20;17.90;;;16.60;;
10242;SDS011;5166;48.292;16.418;2022-08-19T07:22:23;15.23;;;14.02;;
10242;SDS011;5166;48.292;16.418;2022-08-19T07:24:27;18.77;;;17.48;;
10242;SDS011;5166;48.292;16.418;2022-08-19T07:26:33;20.92;;;19.52;;
10242;SDS011;5166;48.292;16.418;2022-08-19T07:28:33;23.12;;;21.20;;
10242;SDS011;5166;48.292;16.418;2022-08-19T07:30:37;21.73;;;20.42;;
10242;SDS011;5166;48.292;16.418;2022-08-19T07:32:40;22.25;;;20.48;;
10242;SDS011;5166;48.292;16.418;2022-08-19T07:34:43;19.33;;;18.02;;
10242;SDS011;5166;48.292;16.418;2022-08-19T07:36:47;20.73;;;19.27;;
10242;SDS011;5166;48.292;16.418;2022-08-19T07:38:50;21.50;;;19.95;;
10242;SDS011;5166;48.292;16.418;2022-08-19T07:40:53;21.40;;;19.80;;
10242;SDS011;5166;48.292;16.418;2022-08-19T07:42:56;17.90;;;16.62;;
10242;SDS011;5166;48.292;16.418;2022-08-19T07:44:58;16.15;;;14.50;;
10242;SDS011;5166;48.292;16.418;2022-08-19T07:47:01;16.33;;;15.05;;
10242;SDS011;5166;48.292;16.418;2022-08-19T07:49:05;17.55;;;15.73;;
10242;SDS011;5166;48.292;16.418;2022-08-19T07:51:08;17.45;;;15.77;;
10242;SDS011;5166;48.292;16.418;2022-08-19T07:53:10;20.45;;;18.85;;
10242;SDS011;5166;48.292;16.418;2022-08-19T07:55:13;16.48;;;14.98;;
10242;SDS011;5166;48.292;16.418;2022-08-19T07:57:16;16.88;;;15.48;;
10242;SDS011;5166;48.292;16.418;2022-08-19T07:59:20;17.67;;;16.30;;
10242;SDS011;5166;48.292;16.418;2022-08-19T08:01:23;15.90;;;14.80;;
10242;SDS011;5166;48.292;16.418;2022-08-19T08:03:27;16.23;;;15.12;;
10242;SDS011;5166;48.292;16.418;2022-08-19T08:05:48;16.70;;;15.43;;
10242;SDS011;5166;48.292;16.418;2022-08-19T08:07:56;18.42;;;17.23;;
10242;SDS011;5166;48.292;16.418;2022-08-19T08:10:06;19.57;;;18.07;;
10242;SDS011;5166;48.292;16.418;2022-08-19T08:12:09;22.17;;;20.58;;
10242;SDS011;5166;48.292;16.418;2022-08-19T08:14:11;21.17;;;19.58;;
10242;SDS011;5166;48.292;16.418;2022-08-19T08:16:14;18.10;;;16.95;;
10242;SDS011;5166;48.292;16.418;2022-08-19T08:18:17;16.85;;;15.55;;
10242;SDS011;5166;48.292;16.418;2022-08-19T08:20:20;17.08;;;15.65;;
10242;SDS011;5166;48.292;16.418;2022-08-19T08:22:23;16.08;;;14.98;;
10242;SDS011;5166;48.292;16.418;2022-08-19T08:24:31;16.25;;;15.05;;
10242;SDS011;5166;48.292;16.418;2022-08-19T08:26:34;17.00;;;15.80;;
10242;SDS011;5166;48.292;16.418;2022-08-19T08:28:37;16.98;;;15.98;;
10242;SDS011;5166;48.292;16.418;2022-08-19T08:30:40;16.35;;;15.00;;
10242;SDS011;5166;48.292;16.418;2022-08-19T08:32:43;15.98;;;14.80;;
10242;SDS011;5166;48.292;16.418;2022-08-19T08:34:47;17.30;;;15.82;;
10242;SDS011;5166;48.292;16.418;2022-08-19T08:36:50;15.65;;;14.48;;
10242;SDS011;5166;48.292;16.418;2022-08-19T08:38:53;15.85;;;14.75;;
10242;SDS011;5166;48.292;16.418;2022-08-19T08:40:57;16.40;;;15.05;;
10242;SDS011;5166;48.292;16.418;2022-08-19T08:43:01;18.35;;;17.05;;
10242;SDS011;5166;48.292;16.418;2022-08-19T08:45:03;18.77;;;17.55;;
10242;SDS011;5166;48.292;16.418;2022-08-19T08:47:12;18.90;;;17.50;;
10242;SDS011;5166;48.292;16.418;2022-08-19T08:49:14;18.55;;;17.35;;
10242;SDS011;5166;48.292;16.418;2022-08-19T08:51:18;18.02;;;16.67;;
10242;SDS011;5166;48.292;16.418;2022-08-19T08:53:20;17.45;;;16.25;;
10242;SDS011;5166;48.292;16.418;2022-08-19T08:55:24;16.70;;;15.38;;
10242;SDS011;5166;48.292;16.418;2022-08-19T08:57:28;19.15;;;17.58;;
10242;SDS011;5166;48.292;16.418;2022-08-19T08:59:30;20.60;;;19.08;;
10242;SDS011;5166;48.292;16.418;2022-08-19T09:01:33;23.00;;;21.40;;
10242;SDS011;5166;48.292;16.418;2022-08-19T09:03:37;20.48;;;19.27;;
10242;SDS011;5166;48.292;16.418;2022-08-19T09:05:40;19.30;;;18.00;;
10242;SDS011;5166;48.292;16.418;2022-08-19T09:07:45;21.80;;;20.12;;
10242;SDS011;5166;48.292;16.418;2022-08-19T09:09:48;19.55;;;18.02;;
10242;SDS011;5166;48.292;16.418;2022-08-19T09:11:53;21.05;;;19.48;;
10242;SDS011;5166;48.292;16.418;2022-08-19T09:13:59;21.12;;;19.67;;
10242;SDS011;5166;48.292;16.418;2022-08-19T09:16:02;22.02;;;20.00;;
10242;SDS011;5166;48.292;16.418;2022-08-19T09:18:04;19.48;;;17.98;;
10242;SDS011;5166;48.292;16.418;2022-08-19T09:20:18;20.67;;;19.08;;
10242;SDS011;5166;48.292;16.418;2022-08-19T09:22:14;18.30;;;17.05;;
10242;SDS011;5166;48.292;16.418;2022-08-19T09:24:17;17.98;;;16.55;;
10242;SDS011;5166;48.292;16.418;2022-08-19T09:26:21;16.65;;;15.55;;
10242;SDS011;5166;48.292;16.418;2022-08-19T09:28:23;14.65;;;13.45;;
10242;SDS011;5166;48.292;16.418;2022-08-19T09:30:27;15.15;;;14.07;;
10242;SDS011;5166;48.292;16.418;2022-08-19T09:32:28;18.60;;;17.10;;
10242;SDS011;5166;48.292;16.418;2022-08-19T09:34:32;18.42;;;16.77;;
10242;SDS011;5166;48.292;16.418;2022-08-19T09:36:35;18.65;;;17.38;;
10242;SDS011;5166;48.292;16.418;2022-08-19T09:38:38;17.02;;;15.77;;
10242;SDS011;5166;48.292;16.418;2022-08-19T09:40:41;17.77;;;16.55;;
10242;SDS011;5166;48.292;16.418;2022-08-19T09:42:44;18.95;;;17.55;;
10242;SDS011;5166;48.292;16.418;2022-08-19T09:44:47;20.88;;;19.50;;
10242;SDS011;5166;48.292;16.418;2022-08-19T09:46:50;20.73;;;19.10;;
10242;SDS011;5166;48.292;16.418;2022-08-19T09:48:53;21.73;;;20.15;;
10242;SDS011;5166;48.292;16.418;2022-08-19T09:51:01;20.40;;;19.00;;
10242;SDS011;5166;48.292;16.418;2022-08-19T09:53:03;19.85;;;18.12;;
10242;SDS011;5166;48.292;16.418;2022-08-19T09:55:08;21.75;;;20.05;;
10242;SDS011;5166;48.292;16.418;2022-08-19T09:57:10;19.88;;;18.52;;
10242;SDS011;5166;48.292;16.418;2022-08-19T09:59:13;22.00;;;20.08;;
10242;SDS011;5166;48.292;16.418;2022-08-19T10:01:17;22.70;;;21.10;;
10242;SDS011;5166;48.292;16.418;2022-08-19T10:03:20;18.73;;;17.23;;
10242;SDS011;5166;48.292;16.418;2022-08-19T10:05:23;23.42;;;21.60;;
10242;SDS011;5166;48.292;16.418;2022-08-19T10:07:31;25.33;;;23.52;;
10242;SDS011;5166;48.292;16.418;2022-08-19T10:09:34;23.98;;;22.40;;
10242;SDS011;5166;48.292;16.418;2022-08-19T10:11:38;19.12;;;17.75;;
10242;SDS011;5166;48.292;16.418;2022-08-19T10:13:41;18.30;;;16.92;;
10242;SDS011;5166;48.292;16.418;2022-08-19T10:15:44;18.98;;;17.38;;
10242;SDS011;5166;48.292;16.418;2022-08-19T10:17:46;18.38;;;17.02;;
10242;SDS011;5166;48.292;16.418;2022-08-19T10:19:49;17.52;;;16.30;;
10242;SDS011;5166;48.292;16.418;2022-08-19T10:21:53;16.02;;;15.00;;
10242;SDS011;5166;48.292;16.418;2022-08-19T10:23:56;18.80;;;17.40;;
10242;SDS011;5166;48.292;16.418;2022-08-19T10:26:00;17.75;;;16.17;;
10242;SDS011;5166;48.292;16.418;2022-08-19T10:28:03;17.10;;;15.65;;
10242;SDS011;5166;48.292;16.418;2022-08-19T10:30:06;15.95;;;14.68;;
10242;SDS011;5166;48.292;16.418;2022-08-19T10:32:10;23.73;;;21.95;;
10242;SDS011;5166;48.292;16.418;2022-08-19T10:34:13;21.43;;;19.83;;
10242;SDS011;5166;48.292;16.418;2022-08-19T10:36:16;20.90;;;18.75;;
10242;SDS011;5166;48.292;16.418;2022-08-19T10:38:19;21.33;;;19.48;;
10242;SDS011;5166;48.292;16.418;2022-08-19T10:40:21;20.67;;;19.00;;
10242;SDS011;5166;48.292;16.418;2022-08-19T10:42:24;20.02;;;18.40;;
10242;SDS011;5166;48.292;16.418;2022-08-19T10:44:27;22.00;;;19.98;;
10242;SDS011;5166;48.292;16.418;2022-08-19T10:46:30;19.50;;;17.40;;
10242;SDS011;5166;48.292;16.418;2022-08-19T10:48:33;16.75;;;15.27;;
10242;SDS011;5166;48.292;16.418;2022-08-19T10:50:37;16.17;;;14.80;;
10242;SDS011;5166;48.292;16.418;2022-08-19T10:52:46;16.38;;;15.00;;
10242;SDS011;5166;48.292;16.418;2022-08-19T10:54:48;16.15;;;14.75;;
10242;SDS011;5166;48.292;16.418;2022-08-19T10:56:57;22.15;;;20.33;;
10242;SDS011;5166;48.292;16.418;2022-08-19T10:58:59;18.40;;;16.83;;
10242;SDS011;5166;48.292;16.418;2022-08-19T11:01:02;21.52;;;19.77;;
10242;SDS011;5166;48.292;16.418;2022-08-19T11:03:05;21.48;;;19.58;;
10242;SDS011;5166;48.292;16.418;2022-08-19T11:05:08;20.67;;;18.73;;
10242;SDS011;5166;48.292;16.418;2022-08-19T11:07:12;18.73;;;17.12;;
10242;SDS011;5166;48.292;16.418;2022-08-19T11:09:15;20.60;;;18.65;;
10242;SDS011;5166;48.292;16.418;2022-08-19T11:11:17;19.48;;;17.75;;
10242;SDS011;5166;48.292;16.418;2022-08-19T11:13:20;17.08;;;15.77;;
10242;SDS011;5166;48.292;16.418;2022-08-19T11:15:23;18.73;;;17.12;;
10242;SDS011;5166;48.292;16.418;2022-08-19T11:17:26;22.00;;;19.77;;
10242;SDS011;5166;48.292;16.418;2022-08-19T11:19:28;29.80;;;23.40;;
10242;SDS011;5166;48.292;16.418;2022-08-19T11:21:32;46.67;;;42.80;;
10242;SDS011;5166;48.292;16.418;2022-08-19T11:23:34;50.30;;;45.88;;
10242;SDS011;5166;48.292;16.418;2022-08-19T11:25:38;47.50;;;43.72;;
10242;SDS011;5166;48.292;16.418;2022-08-19T11:27:42;47.85;;;43.92;;
10242;SDS011;5166;48.292;16.418;2022-08-19T11:29:44;43.17;;;40.08;;
10242;SDS011;5166;48.292;16.418;2022-08-19T11:31:48;41.97;;;38.40;;
10242;SDS011;5166;48.292;16.418;2022-08-19T11:33:50;59.35;;;55.08;;
10242;SDS011;5166;48.292;16.418;2022-08-19T11:35:53;47.00;;;43.33;;
10242;SDS011;5166;48.292;16.418;2022-08-19T11:37:56;44.92;;;41.62;;
10242;SDS011;5166;48.292;16.418;2022-08-19T11:39:59;37.80;;;34.88;;
10242;SDS011;5166;48.292;16.418;2022-08-19T11:42:03;47.75;;;44.17;;
10242;SDS011;5166;48.292;16.418;2022-08-19T11:44:05;43.65;;;40.25;;
10242;SDS011;5166;48.292;16.418;2022-08-19T11:46:12;46.45;;;42.92;;
10242;SDS011;5166;48.292;16.418;2022-08-19T11:48:14;34.85;;;31.65;;
10242;SDS011;5166;48.292;16.418;2022-08-19T11:50:17;37.78;;;34.90;;
10242;SDS011;5166;48.292;16.418;2022-08-19T11:52:20;37.95;;;34.85;;
10242;SDS011;5166;48.292;16.418;2022-08-19T11:54:23;37.57;;;34.50;;
10242;SDS011;5166;48.292;16.418;2022-08-19T11:56:26;31.65;;;29.15;;
10242;SDS011;5166;48.292;16.418;2022-08-19T11:58:28;34.05;;;31.40;;
10242;SDS011;5166;48.292;16.418;2022-08-19T12:00:31;33.08;;;30.42;;
10242;SDS011;5166;48.292;16.418;2022-08-19T12:02:34;35.58;;;32.97;;